Latest Coastal Weather Observations for Smithton

IDT60701

Issued at 4:22 pm EST Friday 27 May 2016 (issued every 10 minutes, with the page automatically refreshed every 10 minutes)

About coastal observations | Map of coastal stations | Coastal observations for TAS | Marine services | Other Formats
Station Details ID: 091292 Name: SMITHTON AERODROME Lat: -40.83 Lon: 145.08 Height: 7.5 m
Data from the previous 72 hours. | See also: Recent months at Smithton
Date/Time
EST
Temp

°C
Wind Pressure Rain
since 9am
mm
Weather Cloud Vis
km
Sea
Height
m
Swell
Dir
 
Speed
knots
Gust
knots
hPa Trend Height
m
Period
s
Dir
27/04:00pm 12.1 SW 8 10 1005.5 - 0.0 - - - - - - -
27/03:30pm 12.7 SSW 12 16 1005.3 - 0.0 - - - - - - -
27/03:00pm 13.2 SSW 12 15 1005.1 - 0.0 - - - - - - -
27/02:30pm 13.0 SW 12 15 1005.1 - 0.0 - - - - - - -
27/02:00pm 12.6 SSW 10 11 1005.1 - 0.0 - - - - - - -
27/01:30pm 13.1 SW 11 14 1005.0 - 0.0 - - - - - - -
27/01:00pm 12.9 SSW 12 15 1005.1 - 0.0 - - - - - - -
27/12:30pm 12.3 SSW 12 15 1005.2 - 0.0 - - - - - - -
27/12:00pm 12.3 SSW 11 16 1005.4 - 0.0 - - - - - - -
27/11:30am 11.7 SSW 11 14 1005.7 - 0.0 - - - - - - -
27/11:00am 11.3 SSW 9 11 1005.8 - 0.0 - - - - - - -
27/10:30am 10.9 S 7 8 1006.0 - 0.0 - - - - - - -
27/10:00am 9.0 S 3 4 1005.9 - 0.0 - - - - - - -
27/09:30am 7.2 S 4 5 1005.7 - 0.0 - - - - - - -
27/09:00am 6.5 SSW 6 8 1005.6 - 0.2 - - - - - - -
27/08:30am 5.2 S 6 8 1005.5 - 0.2 - - - - - - -
27/08:00am 3.5 SSW 8 9 1005.2 - 0.2 - - - - - - -
27/07:30am 3.3 S 7 8 1005.2 - 0.2 - - - - - - -
27/07:00am 3.1 SSW 8 9 1005.1 - 0.2 - - - - - - -
27/06:30am 3.7 SSW 7 8 1005.0 - 0.2 - - - - - - -
27/06:00am 3.2 SSW 6 6 1005.0 - 0.2 - - - - - - -
27/05:30am 3.1 S 5 6 1004.8 - 0.2 - - - - - - -
27/05:00am 4.8 S 5 6 1004.6 - 0.2 - - - - - - -
27/04:30am 4.5 S 5 6 1004.5 - 0.2 - - - - - - -
27/04:00am 5.3 S 5 6 1004.3 - 0.2 - - - - - - -
27/03:30am 3.6 SSW 4 5 1004.6 - 0.2 - - - - - - -
27/03:00am 5.3 S 6 6 1004.6 - 0.2 - - - - - - -
27/02:30am 3.5 SSW 7 7 1004.7 - 0.2 - - - - - - -
27/02:00am 4.3 SSW 6 6 1004.4 - 0.2 - - - - - - -
27/01:30am 3.2 SSW 6 7 1004.3 - 0.2 - - - - - - -
27/01:00am 3.5 SSW 5 6 1004.3 - 0.0 - - - - - - -
27/12:30am 4.9 SSW 5 6 1004.4 - 0.0 - - - - - - -
27/12:00am 4.3 SSW 6 6 1004.3 - 0.0 - - - - - - -
 
Date/Time
EST
Temp

°C
Wind Pressure Rain
since 9am
mm
Weather Cloud Vis
km
Sea
Height
m
Swell
Dir
 
Speed
knots
Gust
knots
hPa Trend Height
m
Period
s
Dir
26/11:30pm 5.0 SSW 6 7 1004.4 - 0.0 - - - - - - -
26/11:00pm 4.9 SSW 6 7 1004.4 - 0.0 - - - - - - -
26/10:30pm 5.8 SSW 5 6 1004.4 - 0.0 - - - - - - -
26/10:00pm 5.8 SW 7 8 1004.4 - 0.0 - - - - - - -
26/09:30pm 6.2 SW 8 9 1004.4 - 0.0 - - - - - - -
26/09:00pm 7.0 SW 8 8 1004.2 - 0.0 - - - - - - -
26/08:30pm 6.9 SW 7 8 1004.0 - 0.0 - - - - - - -
26/08:00pm 8.3 SW 8 11 1003.8 - 0.0 - - - - - - -
26/07:30pm 8.0 SSW 6 7 1003.8 - 0.0 - - - - - - -
26/07:00pm 9.0 SSW 7 8 1003.6 - 0.0 - - - - - - -
26/06:30pm 8.9 SW 8 9 1003.4 - 0.0 - - - - - - -
26/06:00pm 8.7 SSW 6 7 1002.9 - 0.0 - - - - - - -
26/05:30pm 10.1 SSW 7 9 1002.7 - 0.0 - - - - - - -
26/05:00pm 10.8 SSW 10 12 1002.5 - 0.0 - - - - - - -
26/04:30pm 11.4 SW 11 15 1002.2 - 0.0 - - - - - - -
26/04:00pm 11.8 SW 9 11 1001.8 - 0.0 - - - - - - -
26/03:30pm 11.9 SSW 11 14 1001.7 - 0.0 - - - - - - -
26/03:00pm 12.4 SSW 10 14 1001.6 - 0.0 - - - - - - -
26/02:30pm 12.5 SSW 13 18 1001.4 - 0.0 - - - - - - -
26/02:00pm 12.8 SSW 13 16 1001.2 - 0.0 - - - - - - -
26/01:30pm 12.4 SSW 13 16 1001.3 - 0.0 - - - - - - -
26/01:00pm 12.2 SSW 12 15 1001.3 - 0.0 - - - - - - -
26/12:30pm 11.7 SW 10 14 1001.5 - 0.0 - - - - - - -
26/12:00pm 11.4 SW 9 11 1001.7 - 0.0 - - - - - - -
26/11:30am 10.2 S 5 6 1002.1 - 0.0 - - - - - - -
26/11:00am 9.6 S 5 6 1002.4 - 0.0 - - - - - - -
26/10:30am 9.5 CALM 0 0 1002.6 - 0.0 - - - - - - -
26/10:00am 9.3 CALM 0 0 1002.9 - 0.0 - - - - - - -
26/09:30am 9.3 S 3 4 1002.9 - 0.0 - - - - - - -
26/09:00am 9.3 S 5 6 1002.8 - 4.4 - - - - - - -
26/08:30am 9.3 S 6 7 1002.8 - 4.4 - - - - - - -
26/08:00am 9.4 S 8 9 1002.6 - 4.4 - - - - - - -
26/07:30am 8.5 SSW 5 6 1002.8 - 4.4 - - - - - - -
26/07:00am 8.7 SSW 5 5 1002.9 - 4.4 - - - - - - -
26/06:30am 8.9 SW 5 6 1002.6 - 4.4 - - - - - - -
26/06:00am 9.1 SW 5 6 1002.8 - 4.4 - - - - - - -
26/05:30am 9.8 SW 6 7 1002.7 - 4.4 - - - - - - -
26/05:00am 9.8 SW 8 9 1002.6 - 4.4 - - - - - - -
26/04:30am 9.4 SW 7 8 1002.5 - 4.4 - - - - - - -
26/04:00am 9.9 SSW 7 9 1002.4 - 4.4 - - - - - - -
26/03:30am 10.6 SW 8 9 1002.7 - 4.4 - - - - - - -
26/03:00am 11.1 SW 8 10 1002.9 - 4.4 - - - - - - -
26/02:30am 11.3 SW 9 11 1002.9 - 4.4 - - - - - - -
26/02:00am 11.4 SW 9 11 1003.1 - 4.4 - - - - - - -
26/01:30am 11.7 SW 9 10 1003.2 - 4.4 - - - - - - -
26/01:00am 12.0 SW 7 9 1003.2 - 4.4 - - - - - - -
26/12:30am 12.4 SW 8 9 1003.3 - 4.4 - - - - - - -
26/12:00am 12.6 NNW 10 14 1003.4 - 4.2 - - - - - - -
 
Date/Time
EST
Temp

°C
Wind Pressure Rain
since 9am
mm
Weather Cloud Vis
km
Sea
Height
m
Swell
Dir
 
Speed
knots
Gust
knots
hPa Trend Height
m
Period
s
Dir
25/11:30pm 12.7 NNW 11 15 1003.8 - 3.8 - - - - - - -
25/11:00pm 12.7 NNW 11 14 1004.0 - 3.6 - - - - - - -
25/10:30pm 12.5 N 9 12 1004.4 - 3.6 - - - - - - -
25/10:00pm 12.5 N 11 15 1004.7 - 3.4 - - - - - - -
25/09:30pm 12.2 N 9 12 1004.9 - 3.2 - - - - - - -
25/09:00pm 12.0 N 9 13 1005.3 - 2.4 - - - - - - -
25/08:30pm 11.9 N 12 18 1005.5 - 1.4 - - - - - - -
25/08:00pm 12.0 NNW 15 21 1005.6 - 0.2 - - - - - - -
25/07:30pm 12.5 N 13 19 1005.5 - 0.0 - - - - - - -
25/07:00pm 12.7 NNW 13 17 1005.6 - 0.0 - - - - - - -
25/06:30pm 13.4 NNW 13 18 1005.6 - 0.0 - - - - - - -
25/06:00pm 13.5 NNW 12 15 1005.6 - 0.0 - - - - - - -
25/05:30pm 13.8 NNW 9 13 1005.7 - 0.0 - - - - - - -
25/05:00pm 14.3 N 10 13 1005.9 - 0.0 - - - - - - -
25/04:30pm 14.2 N 7 9 1005.9 - 0.0 - - - - - - -
25/04:00pm 14.4 N 8 11 1006.2 - 0.0 - - - - - - -
25/03:30pm 14.5 N 7 10 1006.4 - 0.0 - - - - - - -
25/03:00pm 14.8 N 9 12 1006.5 - 0.0 - - - - - - -
25/02:30pm 15.1 N 9 14 1006.9 - 0.0 - - - - - - -
25/02:00pm 15.5 N 10 14 1007.0 - 0.0 - - - - - - -
25/01:30pm 15.4 N 10 14 1007.5 - 0.0 - - - - - - -
25/01:00pm 14.8 NNE 11 13 1007.9 - 0.0 - - - - - - -
25/12:30pm 15.1 NNE 11 14 1008.5 - 0.0 - - - - - - -
25/12:00pm 15.2 NNE 12 15 1009.1 - 0.0 - - - - - - -
25/11:30am 15.2 NNE 10 14 1009.8 - 0.0 - - - - - - -
25/11:00am 14.8 NNE 13 16 1010.5 - 0.0 - - - - - - -
25/10:30am 13.6 ENE 8 10 1011.0 - 0.0 - - - - - - -
25/10:00am 12.0 ENE 9 12 1011.3 - 0.0 - - - - - - -
25/09:30am 10.1 S 5 7 1012.1 - 0.0 - - - - - - -
25/09:00am 8.2 SSW 4 5 1012.2 - 0.0 - - - - - - -
25/08:30am 6.3 SSW 2 4 1012.6 - 0.0 - - - - - - -
25/08:00am 5.6 SSW 3 5 1012.8 - 0.0 - - - - - - -
25/07:30am 5.2 SSW 4 5 1013.0 - 0.0 - - - - - - -
25/07:00am 5.1 SSW 4 5 1012.9 - 0.0 - - - - - - -
25/06:30am 6.0 CALM 0 4 1013.2 - 0.0 - - - - - - -
25/06:00am 5.6 SSW 4 6 1013.7 - 0.0 - - - - - - -
25/05:30am 4.8 CALM 0 0 1013.6 - 0.0 - - - - - - -
25/05:00am 4.2 SSW 4 5 1014.0 - 0.0 - - - - - - -
25/04:30am 3.4 SSW 5 6 1014.1 - 0.0 - - - - - - -
25/04:00am 4.2 SSW 5 6 1014.3 - 0.0 - - - - - - -
25/03:30am 4.2 SW 5 5 1014.9 - 0.0 - - - - - - -
25/03:00am 2.3 SW 5 6 1015.2 - 0.0 - - - - - - -
25/02:30am 3.2 SW 4 5 1015.3 - 0.0 - - - - - - -
25/02:00am 1.7 SW 4 5 1015.5 - 0.0 - - - - - - -
25/01:30am 2.5 SW 5 5 1015.4 - 0.0 - - - - - - -
25/01:00am 1.5 WSW 6 7 1015.5 - 0.0 - - - - - - -
25/12:30am 1.8 WSW 2 4 1015.7 - 0.0 - - - - - - -
25/12:00am 2.4 CALM 0 0 1016.5 - 0.0 - - - - - - -
 
Date/Time
EST
Temp

°C
Wind Pressure Rain
since 9am
mm
Weather Cloud Vis
km
Sea
Height
m
Swell
Dir
 
Speed
knots
Gust
knots
hPa Trend Height
m
Period
s
Dir
24/11:30pm 3.0 WSW 1 3 1016.6 - 0.0 - - - - - - -
24/11:00pm 5.0 WSW 2 4 1016.5 - 0.0 - - - - - - -
24/10:30pm 4.3 WSW 5 6 1016.8 - 0.0 - - - - - - -
24/10:00pm 5.2 CALM 0 0 1016.9 - 0.0 - - - - - - -
24/09:30pm 6.1 WSW 3 4 1017.2 - 0.0 - - - - - - -
24/09:00pm 7.2 WSW 3 5 1017.7 - 0.0 - - - - - - -
24/08:30pm 8.8 WSW 3 4 1017.7 - 0.0 - - - - - - -
24/08:00pm 9.1 W 7 8 1017.8 - 0.0 - - - - - - -
24/07:30pm 8.8 W 6 7 1017.7 - 0.0 - - - - - - -
24/07:00pm 9.3 W 6 7 1017.7 - 0.0 - - - - - - -
24/06:30pm 8.2 W 6 7 1017.5 - 0.0 - - - - - - -
24/06:00pm 8.1 WSW 7 8 1017.3 - 0.0 - - - - - - -
24/05:30pm 8.8 SW 7 8 1017.0 - 0.0 - - - - - - -
24/05:00pm 10.8 WSW 12 15 1016.9 - 0.0 - - - - - - -
24/04:30pm 11.6 SW 9 11 1017.0 - 0.0 - - - - - - -

Other Formats:

Comma delimited format used in spreadsheet applications
http://www.bom.gov.au/fwo/IDT60701/IDT60701.94953.axf

JavaScript Object Notation format (JSON) in row-major order
http://www.bom.gov.au/fwo/IDT60701/IDT60701.94953.json